Amherst, OH (44001)

10:47 AM EDT on September 20, 2017 (GMT -0400)
Apple Orchard | | Change Station

Elev 679 ft 41.40 °N, 82.25 °W | Updated 8 seconds ago

Overcast
Overcast
73.9 °F
Feels Like 73 °F
N
0.0
Wind Variable Wind from NNE
Gusts 0.0 mph

Today
High -- | Low -- °F
--% Chance of Precip.
Yesterday
High -- | Low -- °F
Precip. -- in
Pressure 30.04 in
Visibility 6.0 miles
Clouds Overcast 9000 ft
Heat Index 73 °F
Dew Point 70 °F
Humidity 87%
Rainfall 0.04 in
Snow Depth Not available.
7:14 AM 7:29 PM
New Moon, 0% visible
METAR KLPR 201353Z AUTO 16004KT 6SM HZ OVC090 21/17 A3005 RMK AO2 SLP172 T02060172
Pressure 30.04 in
Visibility 6.0 miles
Clouds Overcast 9000 ft
Heat Index 73 °F
Dew Point 70 °F
Humidity 87%
Rainfall 0.04 in
Snow Depth Not available.
7:14 AM 7:29 PM
New Moon, 0% visible
METAR KLPR 201353Z AUTO 16004KT 6SM HZ OVC090 21/17 A3005 RMK AO2 SLP172 T02060172

Get Severe Weather Alerts

Thanks for signing up!

Be on the lookout for a verification email in your inbox.

You'll start receiving the daily forecast at 6 AM.

×

10-Day Weather Forecast

Almanac

Astronomy

Sep. 20, 2017 Rise Set
Actual Time
Civil Twilight
Nautical Twilight
Astronomical Twilight
Moon
Length of Visible Light
Length of Day
Tomorrow will be .
, % of the Moon is Illuminated

Today's Extremes

State Highs State Lows

Community

WunderPhotos

Category 6

Welcome to Category 6. This is the collective home for Weather Underground's featured writeups by Dr. Jeff Masters (right), Bob Henson (left), Chris Burt, and other regular contributors.

Nearby

Air Quality

  Air Quality AQ Index Pollutant
Not available.

Snow Depth

Station Depth Elevation

Earthquake Activity

City Distance Mag. Time & Date
Minimum magnitude displayed is 2.5.

Coastal Water Temperatures

Place Temperature

Stations

Nearby Weather Stations

Station Location Temp. Windchill Dew Point Humidity Wind Precip. Elev Updated Type
                   

Watches & Warnings

There are currently no watches in effect.